Time;durP1;ratioP1;P1;durP2;ratioP2;P2;SDS_P1;SDS_P2;PMS_P1;PMS_P2;Temp;Humidity;BMP_temperature;BMP_pressure;BME280_temperature;BME280_humidity;BME280_pressure;Samples;Min_cycle;Max_cycle;Signal;HPM_P1;HPM_P2
2023/10/11 00:00:39;;;;;;;4.30;3.80;;;;;;;-142.91;100.00;56616.03;5046361;28;20260;-67
2023/10/11 00:03:14;;;;;;;10.40;3.65;;;;;;;-142.91;100.00;56616.03;5045910;28;20219;-66
2023/10/11 00:05:41;;;;;;;7.72;3.53;;;;;;;-142.91;100.00;56616.03;5045626;28;20194;-63
2023/10/11 00:08:09;;;;;;;9.32;3.88;;;;;;;-142.91;100.00;56616.03;5045024;28;20207;-66
2023/10/11 00:10:43;;;;;;;6.45;3.63;;;;;;;-142.91;100.00;56616.03;5043978;28;20253;-66
2023/10/11 00:13:12;;;;;;;8.98;4.03;;;;;;;-142.91;100.00;56616.03;5043973;28;20199;-64
2023/10/11 00:15:39;;;;;;;3.88;3.58;;;;;;;-142.91;100.00;56616.03;5044492;28;20263;-65
2023/10/11 00:18:06;;;;;;;5.65;3.65;;;;;;;-142.91;100.00;56616.03;5043197;28;20693;-66
2023/10/11 00:20:47;;;;;;;4.30;3.90;;;;;;;-142.91;100.00;56616.03;5043539;28;21192;-66
2023/10/11 00:23:15;;;;;;;7.63;4.00;;;;;;;-142.91;100.00;56616.03;5043101;28;20325;-63
2023/10/11 00:25:44;;;;;;;4.97;4.57;;;;;;;-142.91;100.00;56616.03;5044045;28;20276;-65
2023/10/11 00:28:14;;;;;;;5.88;4.22;;;;;;;-142.91;100.00;56616.03;5047231;28;20214;-65
2023/10/11 00:30:41;;;;;;;7.63;3.90;;;;;;;-142.91;100.00;56616.03;5044723;28;20223;-65
2023/10/11 00:33:08;;;;;;;12.93;4.32;;;;;;;-142.91;100.00;56616.03;5045146;28;20276;-66
2023/10/11 00:35:44;;;;;;;8.35;3.83;;;;;;;-142.91;100.00;56616.03;5045777;28;20209;-65
2023/10/11 00:38:12;;;;;;;6.35;3.20;;;;;;;-142.91;100.00;56616.03;5045520;28;20225;-64
2023/10/11 00:40:38;;;;;;;6.57;3.67;;;;;;;-142.91;100.00;56616.03;5047522;28;20195;-65
2023/10/11 00:43:13;;;;;;;4.05;3.75;;;;;;;-142.91;100.00;56616.03;5047936;28;20223;-66
2023/10/11 00:45:43;;;;;;;4.18;3.88;;;;;;;-142.91;100.00;56616.03;5046277;28;20195;-67
2023/10/11 00:48:13;;;;;;;9.00;3.60;;;;;;;-142.91;100.00;56616.03;5045861;28;20236;-66
2023/10/11 00:50:40;;;;;;;4.85;4.10;;;;;;;-142.91;100.00;56616.03;5045132;28;20676;-66
2023/10/11 00:53:09;;;;;;;8.93;4.05;;;;;;;-142.91;100.00;56616.03;5048637;28;20209;-65
2023/10/11 00:55:36;;;;;;;6.43;4.03;;;;;;;-142.91;100.00;56616.03;5047310;28;20195;-67
2023/10/11 00:58:04;;;;;;;4.22;3.50;;;;;;;-142.91;100.00;56616.03;5047423;28;20206;-66
2023/10/11 01:00:36;;;;;;;4.40;3.58;;;;;;;-142.91;100.00;56616.03;5049328;28;20218;-66
2023/10/11 01:03:08;;;;;;;9.18;4.35;;;;;;;-142.91;100.00;56616.03;5051499;28;20289;-63
2023/10/11 01:05:43;;;;;;;4.63;3.85;;;;;;;-142.91;100.00;56616.03;5051399;28;20272;-64
2023/10/11 01:08:10;;;;;;;4.40;4.00;;;;;;;-142.91;100.00;56616.03;5056475;28;20228;-67
2023/10/11 01:10:38;;;;;;;5.22;3.38;;;;;;;-142.91;100.00;56616.03;5049949;28;20199;-67
2023/10/11 01:13:05;;;;;;;4.78;4.28;;;;;;;-142.91;100.00;56616.03;5055620;28;20210;-68
2023/10/11 01:15:33;;;;;;;5.20;4.00;;;;;;;-142.91;100.00;56616.03;5054290;28;20233;-68
2023/10/11 01:18:00;;;;;;;5.15;4.35;;;;;;;-142.91;100.00;56616.03;5052271;28;20278;-66
2023/10/11 01:20:31;;;;;;;9.02;4.32;;;;;;;-142.91;100.00;56616.03;5049382;28;20203;-67
2023/10/11 01:22:59;;;;;;;6.63;3.90;;;;;;;-142.91;100.00;56616.03;5048672;28;20280;-67
2023/10/11 01:25:26;;;;;;;5.43;3.85;;;;;;;-142.91;100.00;56616.03;5048829;28;20300;-64
2023/10/11 01:27:52;;;;;;;4.03;3.72;;;;;;;-142.91;100.00;56616.03;5051703;28;20210;-67
2023/10/11 01:30:19;;;;;;;5.90;4.07;;;;;;;-142.91;100.00;56616.03;5057665;28;20280;-67
2023/10/11 01:32:47;;;;;;;8.93;4.38;;;;;;;-142.91;100.00;56616.03;5054361;28;20206;-66
2023/10/11 01:35:19;;;;;;;5.03;4.35;;;;;;;-142.91;100.00;56616.03;5047458;28;20203;-62
2023/10/11 01:37:46;;;;;;;4.00;3.67;;;;;;;12.94;nan;95764.28;5049138;28;20653;-67
2023/10/11 01:40:20;;;;;;;5.25;3.75;;;;;;;12.91;nan;95764.38;5049633;28;20229;-64
2023/10/11 01:42:49;;;;;;;7.47;4.55;;;;;;;12.75;nan;95765.75;5049171;28;20213;-68
2023/10/11 01:45:17;;;;;;;6.57;4.05;;;;;;;12.98;nan;95771.84;5050437;28;20248;-69
2023/10/11 01:47:46;;;;;;;5.63;4.38;;;;;;;12.97;nan;95785.50;5054696;28;20673;-66
2023/10/11 01:50:13;;;;;;;6.70;4.90;;;;;;;12.85;nan;95786.72;5054664;28;20287;-65
2023/10/11 01:52:40;;;;;;;5.70;4.97;;;;;;;12.71;nan;95776.94;5048719;28;20276;-65
2023/10/11 01:55:10;;;;;;;6.05;5.32;;;;;;;12.87;nan;95783.22;5048066;28;20223;-68
2023/10/11 01:57:41;;;;;;;5.13;4.63;;;;;;;12.89;nan;95786.56;5048043;28;20560;-67
2023/10/11 02:00:13;;;;;;;5.55;4.97;;;;;;;12.88;nan;95779.78;5049737;28;20598;-66
2023/10/11 02:02:44;;;;;;;5.15;3.85;;;;;;;12.94;nan;95782.16;5054582;28;20195;-68
2023/10/11 02:05:13;;;;;;;4.75;4.05;;;;;;;13.12;nan;95769.69;5053668;28;20729;-65
2023/10/11 02:07:40;;;;;;;4.32;3.92;;;;;;;13.24;nan;95782.09;5049791;28;20211;-67
2023/10/11 02:10:11;;;;;;;5.20;4.75;;;;;;;13.20;nan;95790.72;5046904;28;20597;-66
2023/10/11 02:12:40;;;;;;;6.95;4.28;;;;;;;12.92;nan;95767.78;5049615;28;20298;-67
2023/10/11 02:15:09;;;;;;;7.32;4.00;;;;;;;13.02;nan;95783.63;5048832;28;20211;-66
2023/10/11 02:17:38;;;;;;;6.47;4.28;;;;;;;12.90;nan;95788.22;5048374;28;20461;-67
2023/10/11 02:20:11;;;;;;;4.60;4.30;;;;;;;12.88;nan;95784.88;5049362;28;20206;-67
2023/10/11 02:22:43;;;;;;;5.60;4.40;;;;;;;12.89;nan;95791.66;5051313;28;20263;-65
2023/10/11 02:25:14;;;;;;;5.13;4.65;;;;;;;12.95;nan;95791.47;5050021;28;20237;-67
2023/10/11 02:27:42;;;;;;;7.35;4.47;;;;;;;12.95;nan;95786.38;5050002;28;20196;-65
2023/10/11 02:30:14;;;;;;;7.45;4.70;;;;;;;12.81;nan;95793.63;5048319;28;20209;-67
2023/10/11 02:32:43;;;;;;;5.70;4.93;;;;;;;12.72;nan;95796.44;5049734;28;20282;-63
2023/10/11 02:35:13;;;;;;;5.03;4.25;;;;;;;12.75;nan;95798.91;5059242;28;20209;-66
2023/10/11 02:37:39;;;;;;;8.25;4.85;;;;;;;12.64;nan;95806.03;5049033;28;20214;-67
2023/10/11 02:40:09;;;;;;;11.13;4.22;;;;;;;12.70;nan;95810.97;5047416;28;20235;-68
2023/10/11 02:42:37;;;;;;;5.82;4.20;;;;;;;12.34;nan;95806.94;5048449;28;20206;-67
2023/10/11 02:45:07;;;;;;;4.22;3.70;;;;;;;12.50;nan;95818.38;5049269;28;20225;-65
2023/10/11 02:47:35;;;;;;;7.75;5.20;;;;;;;12.57;nan;95817.31;5049393;28;20593;-66
2023/10/11 02:50:05;;;;;;;4.50;3.92;;;;;;;12.68;nan;95825.47;5048859;28;20300;-67
2023/10/11 02:52:35;;;;;;;4.25;3.53;;;;;;;12.67;nan;95803.41;5050731;28;20203;-66
2023/10/11 02:55:11;;;;;;;5.18;3.95;;;;;;;12.82;nan;95815.69;5049643;28;20296;-67
2023/10/11 02:57:40;;;;;;;6.50;4.50;;;;;;;12.68;nan;95822.91;5051744;28;20195;-68
2023/10/11 03:00:21;;;;;;;7.00;4.72;;;;;;;12.52;nan;95824.25;5050723;28;20231;-67
2023/10/11 03:02:54;;;;;;;4.20;3.90;;;;;;;12.44;nan;95823.63;5048781;28;20692;-68
2023/10/11 03:05:26;;;;;;;5.40;3.70;;;;;;;12.52;nan;95827.63;5048645;28;20214;-68
2023/10/11 03:08:13;;;;;;;6.40;4.05;;;;;;;12.49;nan;95832.00;5048038;28;20649;-67
2023/10/11 03:10:43;;;;;;;6.68;4.38;;;;;;;12.52;nan;95826.81;5048845;28;20195;-68
2023/10/11 03:13:11;;;;;;;4.80;4.13;;;;;;;12.49;nan;95834.53;5051347;28;20690;-68
2023/10/11 03:15:39;;;;;;;4.93;4.32;;;;;;;12.39;nan;95835.66;5050959;28;20618;-69
2023/10/11 03:18:07;;;;;;;7.78;5.10;;;;;;;12.16;nan;95837.16;5050640;28;20222;-64
2023/10/11 03:20:36;;;;;;;6.63;4.35;;;;;;;12.04;nan;95839.19;5055169;28;20195;-62
2023/10/11 03:23:10;;;;;;;8.93;4.90;;;;;;;12.09;nan;95843.31;5057157;28;20704;-65
2023/10/11 03:25:44;;;;;;;8.70;5.43;;;;;;;12.06;nan;95838.28;5046184;28;20231;-69
2023/10/11 03:28:14;;;;;;;8.68;4.72;;;;;;;11.91;nan;95847.16;5048511;28;20198;-67
2023/10/11 03:30:42;;;;;;;6.70;5.25;;;;;;;11.95;nan;95845.38;5048190;28;20242;-66
2023/10/11 03:33:10;;;;;;;6.22;5.22;;;;;;;11.91;nan;95848.88;5049524;28;20236;-68
2023/10/11 03:35:38;;;;;;;5.35;4.95;;;;;;;11.98;nan;95852.94;5049686;28;20207;-70
2023/10/11 03:38:16;;;;;;;10.57;5.50;;;;;;;12.03;nan;95848.56;5050226;28;20298;-67
2023/10/11 03:40:55;;;;;;;8.60;5.63;;;;;;;12.06;nan;95853.56;5053263;28;20210;-66
2023/10/11 03:43:23;;;;;;;6.75;5.28;;;;;;;12.09;nan;95855.22;5049351;28;20281;-64
2023/10/11 03:45:57;;;;;;;23.52;16.55;;;;;;;12.14;nan;95854.19;5055751;28;20309;-68
2023/10/11 03:48:28;;;;;;;30.77;18.10;;;;;;;12.30;nan;95856.34;5052634;28;20211;-64
2023/10/11 03:50:55;;;;;;;17.95;9.50;;;;;;;12.44;nan;95864.41;5051262;28;20203;-68
2023/10/11 03:53:22;;;;;;;16.35;11.20;;;;;;;12.39;nan;95864.53;5054206;28;20206;-68
2023/10/11 03:55:50;;;;;;;30.23;17.45;;;;;;;12.35;nan;95855.34;5053823;28;20774;-68
2023/10/11 03:58:32;;;;;;;9.23;7.90;;;;;;;12.43;nan;95860.19;5053100;28;20232;-65
2023/10/11 04:01:14;;;;;;;12.25;5.93;;;;;;;12.48;nan;95866.00;5052413;28;20210;-66
2023/10/11 04:03:41;;;;;;;7.70;5.57;;;;;;;12.45;nan;95866.09;5053868;28;20294;-62
2023/10/11 04:06:14;;;;;;;8.10;5.53;;;;;;;12.33;nan;95871.53;5053279;28;20219;-65
2023/10/11 04:08:43;;;;;;;12.02;5.82;;;;;;;12.37;nan;95870.59;5056583;28;20202;-66
2023/10/11 04:11:17;;;;;;;9.20;5.43;;;;;;;12.53;nan;95871.81;5054141;28;20199;-67
2023/10/11 04:13:46;;;;;;;9.25;5.10;;;;;;;12.48;nan;95873.66;5051943;28;20203;-62
2023/10/11 04:16:16;;;;;;;14.65;4.97;;;;;;;12.37;nan;95884.16;5049262;28;20195;-64
2023/10/11 04:18:43;;;;;;;5.82;5.30;;;;;;;12.40;nan;95876.41;5050597;28;20202;-66
2023/10/11 04:23:57;;;;;;;5.60;5.05;;;;;;;12.49;nan;95878.72;5048395;28;20199;-67
2023/10/11 04:26:34;;;;;;;10.90;5.35;;;;;;;12.60;nan;95880.97;5058529;28;20237;-68
2023/10/11 04:29:06;;;;;;;6.38;5.28;;;;;;;12.62;nan;95884.28;5050093;28;20203;-67
2023/10/11 04:31:54;;;;;;;15.80;12.32;;;;;;;12.67;nan;95869.69;5054714;28;20276;-69
2023/10/11 04:34:23;;;;;;;27.73;13.88;;;;;;;12.69;nan;95888.34;5049198;28;20237;-67
2023/10/11 04:36:51;;;;;;;13.98;10.52;;;;;;;12.53;nan;95859.06;5047204;28;20234;-67
2023/10/11 04:39:27;;;;;;;32.15;15.00;;;;;;;12.66;nan;95880.78;5056764;28;20719;-67
2023/10/11 04:41:57;;;;;;;13.40;9.88;;;;;;;12.92;nan;95883.41;5049185;28;20226;-68
2023/10/11 04:44:24;;;;;;;12.25;7.63;;;;;;;12.85;nan;95881.94;5046173;28;20638;-69
2023/10/11 04:46:57;;;;;;;7.50;5.70;;;;;;;12.82;nan;95892.22;5053252;28;20253;-69
2023/10/11 04:49:25;;;;;;;9.20;7.03;;;;;;;12.78;nan;95898.28;5054093;28;20199;-68
2023/10/11 04:51:55;;;;;;;9.68;7.55;;;;;;;12.76;nan;95902.59;5049295;28;20202;-67
2023/10/11 04:54:35;;;;;;;7.72;6.93;;;;;;;12.76;nan;95889.84;5047894;28;20206;-71
2023/10/11 04:57:06;;;;;;;18.70;6.43;;;;;;;12.85;nan;95902.34;5049065;28;20203;-67
2023/10/11 04:59:36;;;;;;;7.55;5.95;;;;;;;12.86;nan;95898.91;5046525;28;20214;-69
2023/10/11 05:02:11;;;;;;;10.05;5.82;;;;;;;12.99;nan;95901.09;5045801;28;20217;-69
2023/10/11 05:04:44;;;;;;;6.00;5.22;;;;;;;13.06;nan;95911.09;5049047;28;20233;-69
2023/10/11 05:07:13;;;;;;;14.65;5.90;;;;;;;13.27;nan;95909.63;5047436;28;20631;-67
2023/10/11 05:09:40;;;;;;;7.35;5.20;;;;;;;13.48;nan;95910.69;5050801;28;20210;-67
2023/10/11 05:12:08;;;;;;;8.05;5.18;;;;;;;13.58;nan;95915.47;5048312;28;20199;-69
2023/10/11 05:14:39;;;;;;;10.15;5.82;;;;;;;13.69;nan;95919.38;5047647;28;20229;-68
2023/10/11 05:17:32;;;;;;;5.95;4.07;;;;;;;13.69;nan;95916.81;5051503;28;20222;-69
2023/10/11 05:20:20;;;;;;;5.05;4.65;;;;;;;13.70;nan;95895.50;5049086;28;20325;-62
2023/10/11 05:22:52;;;;;;;7.60;3.60;;;;;;;13.72;nan;95919.28;5047717;28;20194;-69
2023/10/11 05:28:07;;;;;;;6.35;3.80;;;;;;;13.65;nan;95920.34;5047199;28;20225;-68
2023/10/11 05:30:33;;;;;;;4.82;2.83;;;;;;;13.61;nan;95925.56;5046515;28;20226;-70
2023/10/11 05:33:15;;;;;;;4.93;2.80;;;;;;;13.61;nan;95930.66;5052194;28;20195;-67
2023/10/11 05:35:59;;;;;;;5.55;3.45;;;;;;;13.58;nan;95929.94;5049555;28;20199;-68
2023/10/11 05:52:09;;;;;;;6.20;4.63;;;;;;;14.96;nan;95940.56;5047362;28;20206;-68
2023/10/11 05:54:36;;;;;;;7.80;4.80;;;;;;;15.19;nan;95944.00;5049694;28;20207;-68
2023/10/11 05:57:04;;;;;;;11.90;6.03;;;;;;;15.41;nan;95936.31;5048801;28;20695;-68
2023/10/11 05:59:32;;;;;;;8.07;5.75;;;;;;;15.68;nan;95947.25;5054130;28;20286;-68
2023/10/11 06:02:01;;;;;;;5.80;4.30;;;;;;;15.79;nan;95945.94;5054166;28;20199;-66
2023/10/11 06:04:30;;;;;;;15.15;3.45;;;;;;;15.69;nan;95948.94;5053517;28;20203;-65
2023/10/11 06:06:58;;;;;;;7.15;3.13;;;;;;;15.12;nan;95953.63;5051232;28;20277;-71
2023/10/11 06:09:26;;;;;;;8.90;3.53;;;;;;;14.80;nan;95962.50;5056582;28;20665;-69
2023/10/11 06:11:54;;;;;;;4.25;3.42;;;;;;;14.68;nan;95968.03;5059090;28;20194;-68
2023/10/11 06:14:21;;;;;;;10.85;3.42;;;;;;;14.77;nan;95972.84;5050345;28;20294;-68
2023/10/11 06:16:56;;;;;;;5.10;3.20;;;;;;;14.97;nan;95979.78;5055039;28;20656;-66
2023/10/11 06:19:26;;;;;;;7.50;3.25;;;;;;;15.35;nan;95970.69;5056602;28;20194;-67
2023/10/11 06:21:58;;;;;;;4.10;2.90;;;;;;;16.34;nan;95961.63;5052053;28;20206;-64
2023/10/11 06:24:25;;;;;;;17.17;3.50;;;;;;;17.49;nan;95973.69;5050322;28;20203;-68
2023/10/11 06:26:56;;;;;;;5.57;3.30;;;;;;;17.48;nan;95968.63;5047124;28;20326;-67
2023/10/11 06:29:29;;;;;;;7.35;3.03;;;;;;;17.30;nan;95975.44;5046957;28;20677;-65
2023/10/11 06:31:56;;;;;;;5.75;3.03;;;;;;;17.16;nan;95985.50;5051980;28;20226;-67
2023/10/11 06:34:32;;;;;;;5.95;3.72;;;;;;;17.23;nan;95987.72;5052286;28;20229;-70
2023/10/11 06:37:00;;;;;;;6.32;2.85;;;;;;;16.98;nan;95992.28;5049166;28;20198;-68
2023/10/11 06:42:21;;;;;;;8.02;4.47;;;;;;;16.57;nan;95983.78;5051380;28;20202;-70
2023/10/11 06:44:48;;;;;;;5.88;4.05;;;;;;;16.68;nan;95994.44;5050082;28;20691;-69
2023/10/11 06:47:15;;;;;;;5.32;3.10;;;;;;;16.91;nan;96003.72;5049546;28;20218;-67
2023/10/11 06:49:44;;;;;;;5.72;3.67;;;;;;;16.89;nan;95993.50;5053626;28;20346;-69
2023/10/11 06:52:15;;;;;;;5.53;3.60;;;;;;;16.67;nan;95995.34;5056867;28;20207;-70
2023/10/11 06:54:46;;;;;;;4.88;3.05;;;;;;;16.40;nan;95999.84;5056622;28;20622;-68
2023/10/11 06:57:16;;;;;;;4.57;3.45;;;;;;;16.52;nan;95994.22;5048792;28;20712;-71
2023/10/11 06:59:43;;;;;;;4.57;3.33;;;;;;;16.59;nan;95993.06;5049095;28;20210;-69
2023/10/11 07:02:17;;;;;;;4.55;2.83;;;;;;;16.46;nan;95991.91;5046815;28;20252;-70
2023/10/11 07:04:50;;;;;;;4.50;3.67;;;;;;;16.14;nan;95990.66;5053450;28;20205;-67
2023/10/11 07:07:18;;;;;;;3.90;3.45;;;;;;;16.05;nan;95985.94;5050200;28;20649;-67
2023/10/11 07:09:56;;;;;;;5.88;3.75;;;;;;;15.92;nan;95989.84;5049671;28;20245;-70
2023/10/11 07:12:34;;;;;;;11.38;3.60;;;;;;;15.81;nan;95976.66;5053037;28;20707;-69
2023/10/11 07:15:00;;;;;;;5.78;2.95;;;;;;;15.97;nan;95980.25;5052838;28;20695;-68
2023/10/11 07:17:32;;;;;;;5.20;3.88;;;;;;;16.00;nan;95964.75;5049873;28;20273;-70
2023/10/11 07:19:58;;;;;;;6.22;4.40;;;;;;;16.20;nan;95976.75;5049955;28;20750;-70
2023/10/11 07:22:27;;;;;;;6.18;3.40;;;;;;;16.26;nan;95972.22;5049720;28;20206;-68
2023/10/11 07:24:57;;;;;;;4.75;3.60;;;;;;;16.41;nan;95964.78;5048954;28;20203;-70
2023/10/11 07:27:37;;;;;;;6.53;3.75;;;;;;;16.65;nan;95968.91;5050519;28;20230;-70
2023/10/11 07:30:16;;;;;;;4.00;3.70;;;;;;;16.69;nan;95967.88;5053550;28;20708;-69
2023/10/11 07:32:42;;;;;;;7.53;4.07;;;;;;;16.70;nan;95958.44;5050419;28;20322;-69
2023/10/11 07:35:18;;;;;;;6.03;3.35;;;;;;;16.66;nan;95968.00;5059548;28;20198;-71
2023/10/11 07:37:46;;;;;;;14.20;4.60;;;;;;;16.76;nan;95971.84;5057170;28;20205;-66
2023/10/11 07:40:20;;;;;;;5.00;4.50;;;;;;;17.11;nan;95972.00;5054906;28;20248;-67
2023/10/11 07:42:47;;;;;;;8.88;4.30;;;;;;;17.30;nan;95975.44;5063597;28;20198;-67
2023/10/11 07:45:14;;;;;;;8.25;4.10;;;;;;;17.60;nan;95986.03;5059148;28;20693;-65
2023/10/11 07:47:45;;;;;;;5.68;3.97;;;;;;;18.22;nan;95980.50;5052952;28;20223;-71
2023/10/11 07:50:14;;;;;;;5.57;4.22;;;;;;;-142.91;100.00;56616.03;5055491;28;20203;-69
2023/10/11 07:52:41;;;;;;;9.95;4.32;;;;;;;-142.91;100.00;56616.03;5046447;28;20206;-69
2023/10/11 07:55:12;;;;;;;6.53;4.30;;;;;;;23.03;nan;95972.13;5049309;28;20205;-71
2023/10/11 07:57:44;;;;;;;6.47;4.30;;;;;;;23.35;nan;95967.31;5049108;28;20191;-68
2023/10/11 08:00:17;;;;;;;7.75;4.55;;;;;;;23.96;nan;95963.00;5048112;28;20211;-69
2023/10/11 08:02:43;;;;;;;6.13;4.65;;;;;;;25.19;nan;95960.75;5048294;28;20302;-70
2023/10/11 08:05:12;;;;;;;6.15;4.32;;;;;;;25.50;nan;95959.16;5046219;28;20659;-69
2023/10/11 08:07:40;;;;;;;9.23;4.90;;;;;;;25.74;nan;95967.69;5048325;28;20229;-69
2023/10/11 08:10:29;;;;;;;9.77;4.90;;;;;;;25.24;nan;95975.03;5055228;28;20230;-69
2023/10/11 08:12:57;;;;;;;6.10;4.22;;;;;;;23.70;nan;95983.88;5049384;28;20202;-68
2023/10/11 08:15:25;;;;;;;4.75;4.30;;;;;;;23.99;nan;95974.00;5050589;28;20194;-69
2023/10/11 08:17:52;;;;;;;8.27;4.38;;;;;;;25.58;nan;95970.66;5054089;28;20197;-66
2023/10/11 08:20:19;;;;;;;7.20;3.70;;;;;;;27.44;nan;95977.00;5050977;28;20203;-69
2023/10/11 08:22:47;;;;;;;5.45;4.28;;;;;;;28.27;nan;95978.44;5050565;28;20202;-67
2023/10/11 08:25:15;;;;;;;7.65;3.90;;;;;;;29.09;nan;95970.91;5051407;28;20230;-69
2023/10/11 08:27:51;;;;;;;4.15;3.78;;;;;;;29.83;nan;95974.47;5056780;28;20297;-68
2023/10/11 08:30:22;;;;;;;10.13;3.50;;;;;;;30.02;nan;95969.13;5055408;28;20237;-68
2023/10/11 08:32:51;;;;;;;7.85;3.42;;;;;;;28.77;nan;95973.03;5046142;28;20294;-68
2023/10/11 08:35:31;;;;;;;5.13;3.83;;;;;;;26.78;nan;95970.47;5055967;28;20214;-70
2023/10/11 08:38:02;;;;;;;9.00;3.58;;;;;;;26.64;nan;95974.22;5046140;28;20583;-69
2023/10/11 08:40:34;;;;;;;17.35;12.25;;;;;;;25.65;nan;95965.81;5047578;28;20486;-62
2023/10/11 08:43:02;;;;;;;6.03;4.43;;;;;;;24.80;nan;95970.59;5048626;28;20696;-63
2023/10/11 08:45:33;;;;;;;5.97;5.47;;;;;;;25.15;nan;95959.34;5051098;28;20194;-63
2023/10/11 08:48:00;;;;;;;6.65;4.03;;;;;;;24.63;nan;95969.28;5047291;28;20223;-64
2023/10/11 08:50:32;;;;;;;5.57;3.85;;;;;;;23.30;nan;95970.22;5048247;28;20230;-63
2023/10/11 08:53:01;;;;;;;9.50;4.15;;;;;;;22.34;nan;95973.28;5050520;28;20202;-63
2023/10/11 08:55:28;;;;;;;5.97;4.38;;;;;;;22.44;nan;95965.75;5056649;28;20198;-63
2023/10/11 08:57:56;;;;;;;4.22;3.92;;;;;;;23.01;nan;95964.44;5044188;28;20285;-63
2023/10/11 09:00:31;;;;;;;6.63;5.80;;;;;;;23.40;nan;95958.28;5046878;28;20234;-64
2023/10/11 09:02:58;;;;;;;5.25;4.78;;;;;;;23.94;nan;95967.47;5047302;28;20198;-64
2023/10/11 09:05:42;;;;;;;4.32;3.97;;;;;;;23.44;nan;95971.03;5051195;28;20198;-62
2023/10/11 09:08:20;;;;;;;7.80;4.10;;;;;;;22.85;nan;95970.78;5049758;28;20191;-63
2023/10/11 09:10:49;;;;;;;6.72;4.07;;;;;;;22.36;nan;95972.25;5048580;28;20206;-63
2023/10/11 09:13:25;;;;;;;5.72;4.18;;;;;;;21.99;nan;95973.81;5046633;28;20571;-68
2023/10/11 09:15:54;;;;;;;6.18;3.83;;;;;;;21.70;nan;95973.06;5049347;28;20226;-65
2023/10/11 09:18:25;;;;;;;5.22;4.72;;;;;;;21.55;nan;95968.00;5055682;28;20238;-65
2023/10/11 09:21:08;;;;;;;4.50;4.15;;;;;;;20.96;nan;95973.31;5046535;28;20264;-65
2023/10/11 09:23:35;;;;;;;4.57;4.18;;;;;;;20.82;nan;95967.28;5046154;28;20212;-65
2023/10/11 09:26:03;;;;;;;14.95;7.75;;;;;;;21.26;nan;95957.72;5049361;28;20258;-65
2023/10/11 09:28:33;;;;;;;4.75;4.32;;;;;;;21.58;nan;95947.94;5051181;28;20206;-64
2023/10/11 09:31:11;;;;;;;4.75;3.60;;;;;;;21.78;nan;95949.28;5052492;28;20214;-66
2023/10/11 09:33:40;;;;;;;6.60;4.40;;;;;;;21.96;nan;95949.88;5050978;28;20238;-64
2023/10/11 09:36:08;;;;;;;4.85;3.70;;;;;;;21.65;nan;95954.41;5052729;28;20600;-64
2023/10/11 09:38:40;;;;;;;4.07;3.78;;;;;;;21.53;nan;95951.78;5053366;28;20260;-65
2023/10/11 09:41:08;;;;;;;10.75;4.07;;;;;;;21.31;nan;95957.44;5049025;28;20603;-66
2023/10/11 09:43:44;;;;;;;3.78;3.47;;;;;;;20.64;nan;95951.97;5050278;28;20767;-64
2023/10/11 09:46:11;;;;;;;12.52;4.65;;;;;;;20.69;nan;95947.38;5052450;28;20245;-65
2023/10/11 09:48:39;;;;;;;6.95;4.00;;;;;;;20.73;nan;95940.28;5050278;28;20211;-66
2023/10/11 09:51:08;;;;;;;7.22;4.03;;;;;;;20.59;nan;95945.41;5052315;28;20706;-64
2023/10/11 09:53:41;;;;;;;7.05;5.43;;;;;;;20.88;nan;95938.50;5052492;28;20253;-64
2023/10/11 09:56:18;;;;;;;8.25;5.22;;;;;;;21.32;nan;95933.22;5051889;28;20768;-63
2023/10/11 09:58:57;;;;;;;4.75;4.28;;;;;;;21.38;nan;95935.44;5048470;28;20257;-63
2023/10/11 10:01:32;;;;;;;3.97;3.55;;;;;;;21.02;nan;95931.59;5049214;28;20227;-65
2023/10/11 10:04:06;;;;;;;5.15;3.63;;;;;;;20.68;nan;95937.13;5053642;28;20289;-66
2023/10/11 10:06:32;;;;;;;8.77;3.90;;;;;;;20.76;nan;95936.69;5052286;28;20215;-64
2023/10/11 10:09:23;;;;;;;5.30;4.80;;;;;;;20.96;nan;95923.38;5050619;28;20210;-66
2023/10/11 10:12:21;;;;;;;10.55;4.82;;;;;;;20.64;nan;95923.56;5051614;28;20203;-64
2023/10/11 10:14:53;;;;;;;5.03;4.53;;;;;;;20.57;nan;95926.59;5046847;28;20195;-64
2023/10/11 10:17:20;;;;;;;4.30;4.00;;;;;;;20.54;nan;95922.44;5051585;28;20213;-64
2023/10/11 10:19:47;;;;;;;7.28;3.92;;;;;;;20.87;nan;95911.84;5047425;28;20749;-65
2023/10/11 10:22:16;;;;;;;9.23;3.88;;;;;;;21.13;nan;95909.41;5048194;28;20291;-66
2023/10/11 10:24:43;;;;;;;3.63;3.33;;;;;;;21.20;nan;95906.41;5048394;28;20247;-65
2023/10/11 10:27:38;;;;;;;4.65;4.05;;;;;;;21.36;nan;95901.91;5047935;28;20219;-64
2023/10/11 10:30:10;;;;;;;6.05;3.92;;;;;;;21.64;nan;95898.41;5054224;28;20237;-64
2023/10/11 10:32:38;;;;;;;4.50;4.07;;;;;;;21.97;nan;95897.19;5051596;28;20214;-65
2023/10/11 10:35:36;;;;;;;3.90;3.60;;;;;;;21.99;nan;95892.75;5049769;28;20708;-65
2023/10/11 10:38:09;;;;;;;3.90;3.20;;;;;;;22.24;nan;95886.81;5048358;28;20690;-64
2023/10/11 10:40:37;;;;;;;7.13;3.55;;;;;;;22.02;nan;95879.63;5050828;28;20203;-66
2023/10/11 10:43:20;;;;;;;6.55;4.30;;;;;;;22.08;nan;95883.53;5050483;28;20565;-65
2023/10/11 10:45:49;;;;;;;4.05;3.50;;;;;;;22.01;nan;95883.16;5052464;28;20680;-65
2023/10/11 10:48:18;;;;;;;8.00;3.90;;;;;;;22.11;nan;95879.00;5051039;28;20221;-66
2023/10/11 10:50:52;;;;;;;3.80;3.45;;;;;;;22.20;nan;95874.97;5050378;28;20203;-65
2023/10/11 10:53:18;;;;;;;4.10;3.80;;;;;;;21.97;nan;95868.72;5048273;28;20198;-65
2023/10/11 10:55:46;;;;;;;6.07;3.60;;;;;;;21.98;nan;95873.78;5047489;28;20198;-65
2023/10/11 10:58:19;;;;;;;5.35;3.22;;;;;;;21.99;nan;95866.84;5049106;28;20206;-65
2023/10/11 11:00:52;;;;;;;3.63;3.40;;;;;;;22.17;nan;95863.06;5052117;28;20248;-64
2023/10/11 11:03:22;;;;;;;3.28;3.08;;;;;;;22.17;nan;95873.44;5048073;28;20235;-65
2023/10/11 11:05:59;;;;;;;3.42;3.22;;;;;;;21.98;nan;95867.78;5047495;28;20681;-66
2023/10/11 11:08:31;;;;;;;9.43;4.00;;;;;;;21.98;nan;95857.44;5047759;28;20272;-66
2023/10/11 11:11:18;;;;;;;3.25;3.00;;;;;;;21.90;nan;95849.31;5049527;28;20290;-67
2023/10/11 11:13:47;;;;;;;4.75;3.25;;;;;;;21.69;nan;95861.91;5047525;28;20579;-65
2023/10/11 11:16:19;;;;;;;4.50;3.20;;;;;;;21.52;nan;95863.00;5048544;28;20205;-65
2023/10/11 11:18:46;;;;;;;3.28;3.03;;;;;;;21.33;nan;95854.75;5050913;28;20241;-64
2023/10/11 11:21:23;;;;;;;4.20;3.45;;;;;;;21.31;nan;95856.59;5051765;28;20207;-64
2023/10/11 11:23:50;;;;;;;4.00;3.45;;;;;;;21.45;nan;95847.97;5052492;28;20210;-67
2023/10/11 11:26:17;;;;;;;3.70;3.20;;;;;;;21.78;nan;95845.78;5052457;28;20234;-64
2023/10/11 11:28:45;;;;;;;3.53;3.17;;;;;;;21.68;nan;95855.09;5051240;28;20770;-66
2023/10/11 11:31:13;;;;;;;3.08;2.83;;;;;;;21.55;nan;95849.03;5049562;28;20222;-64
2023/10/11 11:34:05;;;;;;;4.38;3.28;;;;;;;21.37;nan;95836.34;5047446;28;20202;-64
2023/10/11 11:36:34;;;;;;;3.47;3.17;;;;;;;21.55;nan;95842.09;5047440;28;20203;-65
2023/10/11 11:41:42;;;;;;;4.35;2.40;;;;;;;21.25;nan;95838.91;5052301;28;20255;-65
2023/10/11 11:44:10;;;;;;;3.10;2.90;;;;;;;20.74;nan;95840.34;5053937;28;20230;-65
2023/10/11 11:46:37;;;;;;;3.03;2.67;;;;;;;20.74;nan;95842.94;5048036;28;20210;-65
2023/10/11 11:49:09;;;;;;;4.28;3.05;;;;;;;20.95;nan;95828.69;5046107;28;20257;-66
2023/10/11 11:51:37;;;;;;;3.60;2.65;;;;;;;21.20;nan;95831.44;5047929;28;20202;-65
2023/10/11 11:54:03;;;;;;;3.10;2.90;;;;;;;21.45;nan;95837.63;5046719;28;20241;-66
2023/10/11 11:56:30;;;;;;;3.72;2.97;;;;;;;21.44;nan;95831.63;5048574;28;20221;-65
2023/10/11 11:59:00;;;;;;;3.13;2.85;;;;;;;21.45;nan;95829.88;5048283;28;20203;-64
2023/10/11 12:01:27;;;;;;;6.72;2.78;;;;;;;21.52;nan;95821.63;5047333;28;20206;-64
2023/10/11 12:03:54;;;;;;;5.75;2.92;;;;;;;21.53;nan;95830.22;5046567;28;20227;-63
2023/10/11 12:06:26;;;;;;;6.53;3.65;;;;;;;21.53;nan;95820.66;5051758;28;20207;-65
2023/10/11 12:08:57;;;;;;;3.03;2.83;;;;;;;21.47;nan;95820.25;5046457;28;20241;-65
2023/10/11 12:11:28;;;;;;;3.10;2.90;;;;;;;21.13;nan;95816.38;5051844;28;20203;-65
2023/10/11 12:13:56;;;;;;;3.20;3.00;;;;;;;20.87;nan;95818.00;5049519;28;20507;-65
2023/10/11 12:16:23;;;;;;;3.20;2.90;;;;;;;20.92;nan;95814.22;5049827;28;20290;-65
2023/10/11 12:18:50;;;;;;;3.35;3.05;;;;;;;21.24;nan;95813.97;5047044;28;20227;-64
2023/10/11 12:21:16;;;;;;;4.35;2.78;;;;;;;21.42;nan;95812.78;5052679;28;20221;-64
2023/10/11 12:23:47;;;;;;;3.97;2.90;;;;;;;21.44;nan;95800.59;5051296;28;20254;-64
2023/10/11 12:26:16;;;;;;;3.28;2.95;;;;;;;21.48;nan;95807.22;5045282;28;20313;-63